EDLPEPKT

Guest
Details From EDLP - Paderborn Lippstadt
To EPKT - PYRZOWICE
Flight Number -
Tags decoded
Created
Modified
Stats Distance 401 nm / 743 km
Max Altitude 0 ft / 0 m
Waypoints 3
Social Downloads 0
Likes 0
Share VATSIM

Download

Looking for another format? Having issues loading an existing format? Contact us
Advertisement - Login to hide

Notes

Requested: EDLP SABAB EPKT

Route

EDLP SABAB EPKT

ID Type Via Altitude Latitude Longitude Leg Dist Tot Dist Heading (true) Name
O EDLP APT - 0 ft / 0 m 51.61417˚ 8.61634˚ - 0 nm - Paderborn Lippstadt
SABAB FIX - 0 ft / 0 m 50.77028˚ 17.89917˚ 352 nm 352 nm 95° / 102° -
O EPKT APT - 0 ft / 0 m 50.47426˚ 19.07436˚ 48 nm 400 nm 111° / 112° PYRZOWICE

Altitude Profile

Advertisement - Login to hide

Weather


0- 5 10 15 20 25 30 35+ Temperature / ° C

Clouds and Precipitation
Forecast for 2017-12-12 00:00 UTC. Updated 2 hours ago

Ground ~20,000 ft ~40,000 ft Winds

EDLP

Details ICAO EDLP (PAD)
Name Paderborn Lippstadt
Region Germany - Civil
Timezone Europe/Berlin (UTC+1.0)
Stats Elevation 699 ft / 213 m (AMSL)
Location 51.614166° 8.616336°
Runways 1
Magnetic Variation 2.356° E

METAR

EDLP 112020Z 17012G22KT CAVOK 08/03 Q0980

Decode

TAF

TAF EDLP 111700Z 1118/1218 16013KT 9999 BKN040 PROB30 TEMPO 1118/1124 18015G25KT BECMG 1200/1203 26015G25KT BECMG 1201/1204 BKN012 PROB30 TEMPO 1202/1212 27020G30KT TEMPO 1203/1212 3000 SHSN BKN005TCU BECMG 1211/1214 SCT007 BKN015 BECMG 1216/1218 24010KT

Decode

Departure Runways

ID Width Length Bearing (true) Bearing (mag) Surface Threshold Offset Overrun Length
06 148 ft / 45 m 7,136 ft / 2,175 m 57.28° 54.92° Asphalt 0 ft / 0 m 1,066 ft / 325 m
24 148 ft / 45 m 7,136 ft / 2,175 m 237.30° 234.94° Asphalt 0 ft / 0 m 397 ft / 121 m

EPKT

Details ICAO EPKT (KTW)
Name PYRZOWICE
Region Poland
Timezone Europe/Warsaw (UTC+1.0)
Stats Elevation 995 ft / 303 m (AMSL)
Location 50.474263° 19.074356°
Runways 1
Magnetic Variation 5.084° E

METAR

EPKT 112030Z 17009KT 140V230 CAVOK 10/05 Q0992

Decode

TAF

TAF EPKT 111730Z 1118/1218 19015KT CAVOK TEMPO 1118/1207 20020G40KT BECMG 1207/1210 25015KT TEMPO 1207/1212 23020G30KT BECMG 1212/1215 25005KT

Decode

Destination Runways

ID Width Length Bearing (true) Bearing (mag) Surface Threshold Offset Overrun Length
09 195 ft / 59 m 9,156 ft / 2,791 m 90.18° 85.10° Concrete 0 ft / 0 m 0 ft / 0 m
27 195 ft / 59 m 9,156 ft / 2,791 m 270.22° 265.14° Concrete 0 ft / 0 m 0 ft / 0 m

Approach Navaids

Runway Type Ident Frequency Range Bearing (true) Bearing (mag) Slope Elevation
27 Localiser KAT 109.90 MHz 18 nm / 33 km 270.18° 265.09° - 995 ft / 303 m (AMSL)
27 Glidescope KAT 109.90 MHz 10 nm / 19 km 270.20° 265.12° 3.20° 995 ft / 303 m (AMSL)

Popular Alternatives